Time;durP1;ratioP1;P1;durP2;ratioP2;P2;SDS_P1;SDS_P2;PMS_P1;PMS_P2;Temp;Humidity;BMP_temperature;BMP_pressure;BME280_temperature;BME280_humidity;BME280_pressure;Samples;Min_cycle;Max_cycle;Signal;HPM_P1;HPM_P2
2022/03/23 00:09:09;;;;;;;3.93;2.70;;;;;;;;;;20710365;28;20223;-64
2022/03/23 00:19:11;;;;;;;5.60;2.60;;;10.10;99.90;;;;;;20694238;28;20293;-64
2022/03/23 00:29:14;;;;;;;4.33;3.00;;;;;;;;;;20725236;28;20289;-64
2022/03/23 00:39:15;;;;;;;9.30;3.03;;;;;;;;;;20724886;28;20219;-66
2022/03/23 00:49:17;;;;;;;4.07;2.40;;;;;;;;;;20708259;28;20622;-66
2022/03/23 00:59:22;;;;;;;3.97;2.67;;;9.00;99.90;;;;;;20692141;28;20219;-65
2022/03/23 01:09:25;;;;;;;4.33;2.87;;;;;;;;;;20708403;28;20293;-65
2022/03/23 01:19:29;;;;;;;4.13;2.57;;;;;;;;;;20691520;28;20690;-66
2022/03/23 01:29:31;;;;;;;4.47;2.50;;;;;;;;;;20687521;28;20254;-65
2022/03/23 01:39:33;;;;;;;4.23;2.00;;;;;;;;;;20734970;28;20263;-65
2022/03/23 01:49:36;;;;;;;5.53;2.40;;;;;;;;;;20754204;28;20329;-66
2022/03/23 01:59:38;;;;;;;4.77;2.87;;;;;;;;;;20719835;28;20265;-65
2022/03/23 02:09:41;;;;;;;4.13;2.50;;;8.90;99.90;;;;;;20718848;28;20211;-66
2022/03/23 02:19:48;;;;;;;4.37;2.93;;;;;;;;;;20719480;28;20235;-66
2022/03/23 02:29:53;;;;;;;5.50;3.00;;;8.80;99.90;;;;;;20733589;28;20218;-66
2022/03/23 02:39:55;;;;;;;3.70;2.50;;;8.50;99.90;;;;;;20700955;28;20223;-65
2022/03/23 02:49:57;;;;;;;4.57;2.70;;;;;;;;;;20731688;28;20215;-65
2022/03/23 03:10:50;;;;;;;3.90;2.37;;;;;;;;;;20730559;28;20269;-66
2022/03/23 03:20:52;;;;;;;4.30;2.77;;;;;;;;;;20678772;28;20702;-65
2022/03/23 03:30:53;;;;;;;3.40;2.63;;;;;;;;;;20807391;22;20227;-71
2022/03/23 03:40:55;;;;;;;4.33;2.77;;;;;;;;;;20822867;28;20219;-70
2022/03/23 03:50:57;;;;;;;4.80;2.67;;;;;;;;;;20824346;28;20617;-70
2022/03/23 04:00:59;;;;;;;3.90;2.90;;;;;;;;;;20823783;28;20222;-70
2022/03/23 04:11:01;;;;;;;4.20;2.80;;;;;;;;;;20816388;28;20245;-71
2022/03/23 04:21:03;;;;;;;3.73;2.47;;;;;;;;;;20803341;28;20234;-71
2022/03/23 04:31:07;;;;;;;3.87;2.60;;;7.30;99.90;;;;;;20821552;28;20218;-73
2022/03/23 04:41:08;;;;;;;4.47;2.40;;;;;;;;;;20806874;28;20218;-70
2022/03/23 04:51:11;;;;;;;3.80;2.37;;;;;;;;;;20822833;28;20274;-70
2022/03/23 05:01:13;;;;;;;5.03;2.90;;;;;;;;;;20821260;28;20827;-69
2022/03/23 05:11:15;;;;;;;4.23;3.00;;;;;;;;;;20827718;28;20206;-70
2022/03/23 05:21:16;;;;;;;4.27;2.57;;;;;;;;;;20835161;28;20218;-71
2022/03/23 05:31:18;;;;;;;4.13;2.70;;;;;;;;;;20835543;28;20211;-70
2022/03/23 05:52:20;;;;;;;4.47;2.80;;;6.60;99.90;;;;;;20978194;28;20570;-64
2022/03/23 06:02:22;;;;;;;5.67;3.00;;;;;;;;;;20910614;28;20267;-64
2022/03/23 06:12:25;;;;;;;9.57;3.67;;;;;;;;;;20954614;28;20271;-64
2022/03/23 06:22:27;;;;;;;6.50;3.27;;;;;;;;;;20924036;28;20685;-65
2022/03/23 06:32:29;;;;;;;4.10;2.60;;;;;;;;;;20923321;28;20206;-64
2022/03/23 06:42:30;;;;;;;4.30;2.60;;;;;;;;;;20921635;28;20625;-64
2022/03/23 06:52:32;;;;;;;6.63;2.23;;;;;;;;;;20922564;28;20339;-65
2022/03/23 07:02:34;;;;;;;8.20;2.87;;;;;;;;;;20864171;28;20228;-63
2022/03/23 07:12:36;;;;;;;4.33;2.50;;;;;;;;;;20857852;28;20213;-66
2022/03/23 07:22:38;;;;;;;4.87;2.77;;;;;;;;;;20898267;28;20705;-65
2022/03/23 07:32:40;;;;;;;14.37;3.60;;;;;;;;;;20864700;28;20202;-63
2022/03/23 07:42:42;;;;;;;6.57;3.27;;;;;;;;;;20856300;28;20225;-63
2022/03/23 07:52:43;;;;;;;4.53;2.70;;;;;;;;;;20863185;28;20758;-62
2022/03/23 08:02:45;;;;;;;4.63;2.97;;;;;;;;;;20862542;28;20210;-63
2022/03/23 08:12:47;;;;;;;5.60;3.50;;;;;;;;;;20856938;28;20276;-63
2022/03/23 08:22:49;;;;;;;7.20;3.67;;;;;;;;;;20876707;28;20264;-63
2022/03/23 08:32:51;;;;;;;4.30;3.10;;;;;;;;;;20870960;28;20276;-63
2022/03/23 08:42:53;;;;;;;6.33;4.27;;;;;;;;;;20851321;28;20226;-63
2022/03/23 08:52:55;;;;;;;6.23;3.83;;;;;;;;;;20834954;28;20219;-63
2022/03/23 09:02:58;;;;;;;6.30;3.73;;;;;;;;;;20842746;28;20236;-64
2022/03/23 09:13:03;;;;;;;5.33;3.40;;;;;;;;;;20855781;28;20253;-64
2022/03/23 09:23:12;;;;;;;6.20;3.00;;;;;;;;;;20862884;22;20289;-81
2022/03/23 09:34:20;;;;;;;6.10;3.20;;;;;;;;;;20733853;28;20265;-81
2022/03/23 09:56:49;;;;;;;5.47;3.50;;;;;;;;;;20698095;23;20284;-65
2022/03/23 10:07:13;;;;;;;7.23;4.13;;;;;;;;;;20708768;28;20212;-65
2022/03/23 10:17:28;;;;;;;4.60;3.23;;;;;;;;;;20691894;28;20222;-66
2022/03/23 10:27:32;;;;;;;5.87;3.50;;;;;;;;;;20729120;28;20215;-65
2022/03/23 10:37:35;;;;;;;7.13;4.27;;;15.30;99.90;;;;;;20708113;28;20269;-66
2022/03/23 10:47:38;;;;;;;5.00;3.70;;;;;;;;;;20708687;28;20605;-66
2022/03/23 10:57:51;;;;;;;6.27;3.80;;;15.70;99.90;;;;;;20712546;28;20285;-65
2022/03/23 11:08:08;;;;;;;6.60;3.67;;;;;;;;;;20704743;28;20280;-66
2022/03/23 11:18:17;;;;;;;4.93;3.13;;;16.10;99.90;;;;;;20744626;28;20276;-65
2022/03/23 11:28:19;;;;;;;7.40;4.47;;;;;;;;;;20701436;28;20297;-65
2022/03/23 11:38:23;;;;;;;5.47;3.77;;;16.40;99.90;;;;;;20682053;28;20281;-65
2022/03/23 11:48:44;;;;;;;4.83;3.43;;;16.50;94.60;;;;;;20710862;28;20207;-65
2022/03/23 11:58:46;;;;;;;5.63;4.00;;;;;;;;;;20715454;28;20575;-65
2022/03/23 12:08:58;;;;;;;5.77;3.80;;;17.20;99.90;;;;;;20716696;28;20494;-65
2022/03/23 12:19:01;;;;;;;5.77;3.63;;;;;;;;;;20715099;28;20223;-65
2022/03/23 12:29:15;;;;;;;5.43;3.80;;;17.70;99.90;;;;;;20728555;28;20277;-65
2022/03/23 12:39:29;;;;;;;4.67;3.27;;;;;;;;;;20732593;28;20258;-66
2022/03/23 13:00:08;;;;;;;4.90;3.53;;;18.30;95.90;;;;;;20739751;28;20227;-66
2022/03/23 13:10:14;;;;;;;3.83;2.83;;;;;;;;;;20683721;28;20258;-65
2022/03/23 13:20:17;;;;;;;3.90;2.50;;;;;;;;;;20702462;28;20223;-66
2022/03/23 13:30:23;;;;;;;5.30;3.43;;;18.20;90.60;;;;;;20720844;28;20767;-66
2022/03/23 13:50:54;;;;;;;4.03;3.10;;;;;;;;;;20735432;28;20269;-66
2022/03/23 14:00:56;;;;;;;4.07;2.80;;;;;;;;;;20696050;28;20285;-66
2022/03/23 14:10:58;;;;;;;7.27;2.70;;;;;;;;;;20694099;28;20215;-66
2022/03/23 14:21:02;;;;;;;4.03;2.43;;;18.70;89.40;;;;;;20714552;28;20273;-66
2022/03/23 14:31:04;;;;;;;5.17;2.93;;;;;;;;;;20703672;28;20215;-66
2022/03/23 14:41:10;;;;;;;4.07;3.23;;;;;;;;;;20736719;28;20784;-66
2022/03/23 14:51:12;;;;;;;4.87;3.17;;;;;;;;;;20719471;28;20238;-66
2022/03/23 15:01:14;;;;;;;3.77;2.80;;;;;;;;;;20716508;28;20249;-66
2022/03/23 15:21:36;;;;;;;6.57;2.53;;;;;;;;;;20697512;28;20223;-66
2022/03/23 15:31:38;;;;;;;3.97;2.57;;;;;;;;;;20749734;28;20595;-66
2022/03/23 15:41:41;;;;;;;5.23;2.87;;;;;;;;;;20786984;22;20222;-65
2022/03/23 15:51:47;;;;;;;4.10;2.80;;;17.80;91.30;;;;;;20860157;28;20226;-65
2022/03/23 16:01:49;;;;;;;4.33;2.83;;;;;;;;;;20840957;28;20521;-65
2022/03/23 16:11:53;;;;;;;4.40;3.33;;;;;;;;;;20855413;28;20218;-66
2022/03/23 16:21:55;;;;;;;4.87;2.90;;;;;;;;;;20879822;28;20490;-66
2022/03/23 16:31:57;;;;;;;4.17;2.63;;;;;;;;;;20862313;28;20218;-66
2022/03/23 16:42:00;;;;;;;3.63;2.47;;;;;;;;;;20882678;28;20704;-66
2022/03/23 16:52:02;;;;;;;3.87;2.40;;;;;;;;;;20862994;28;20241;-65
2022/03/23 17:02:04;;;;;;;3.50;2.57;;;;;;;;;;20859770;28;20214;-66
2022/03/23 17:22:28;;;;;;;5.37;2.80;;;;;;;;;;20867538;28;20222;-65
2022/03/23 17:32:31;;;;;;;5.73;2.50;;;18.70;94.80;;;;;;20852404;28;20296;-66
2022/03/23 17:42:36;;;;;;;6.17;2.77;;;;;;;;;;20817650;28;20218;-66
2022/03/23 17:52:52;;;;;;;4.57;2.70;;;;;;;;;;20860363;28;20221;-66
2022/03/23 18:03:09;;;;;;;4.50;2.60;;;;;;;;;;20833609;28;20593;-66
2022/03/23 18:13:11;;;;;;;6.47;3.40;;;;;;;;;;20818844;28;20194;-65
2022/03/23 18:23:14;;;;;;;7.37;3.60;;;;;;;;;;20843768;28;20197;-65
2022/03/23 18:33:16;;;;;;;9.13;3.73;;;;;;;;;;20797960;28;20182;-65
2022/03/23 18:43:18;;;;;;;6.23;3.53;;;;;;;;;;20825156;28;20256;-66
2022/03/23 18:53:20;;;;;;;5.60;3.57;;;;;;;;;;20822486;28;20288;-64
2022/03/23 19:03:22;;;;;;;4.13;2.83;;;15.10;99.90;;;;;;20858273;28;20275;-65
2022/03/23 19:13:25;;;;;;;9.67;3.60;;;;;;;;;;20878453;28;20268;-65
2022/03/23 19:23:30;;;;;;;4.53;3.13;;;;;;;;;;20881406;28;20430;-65
2022/03/23 19:33:36;;;;;;;6.33;2.70;;;;;;;;;;20865507;28;20236;-65
2022/03/23 19:43:38;;;;;;;5.33;2.90;;;;;;;;;;20865754;28;20229;-65
2022/03/23 19:53:43;;;;;;;6.80;3.00;;;;;;;;;;20780215;28;20300;-65
2022/03/23 20:03:48;;;;;;;5.03;3.03;;;;;;;;;;20781433;28;20735;-65
2022/03/23 20:13:51;;;;;;;8.37;3.40;;;;;;;;;;20815436;28;20234;-65
2022/03/23 20:23:55;;;;;;;4.73;2.77;;;;;;;;;;20796898;28;20227;-65
2022/03/23 20:34:00;;;;;;;4.43;2.70;;;;;;;;;;20823405;28;21044;-64
2022/03/23 20:44:03;;;;;;;4.20;2.57;;;13.40;99.90;;;;;;20856709;28;20260;-65
2022/03/23 20:54:06;;;;;;;4.80;2.90;;;;;;;;;;20872698;28;20268;-65
2022/03/23 21:04:08;;;;;;;4.33;2.77;;;;;;;;;;20862808;28;20205;-65
2022/03/23 21:14:10;;;;;;;4.03;2.67;;;;;;;;;;20845185;28;20280;-65
2022/03/23 21:24:12;;;;;;;4.23;3.20;;;;;;;;;;20860961;28;20206;-64
2022/03/23 21:34:14;;;;;;;5.27;3.90;;;;;;;;;;20843931;28;20271;-64
2022/03/23 21:44:16;;;;;;;3.37;2.47;;;;;;;;;;20751535;22;20285;-71
2022/03/23 21:54:18;;;;;;;5.70;3.37;;;;;;;;;;20724778;28;20211;-72
2022/03/23 22:04:19;;;;;;;8.53;2.90;;;;;;;;;;20737827;28;20678;-72
2022/03/23 22:14:21;;;;;;;4.57;2.60;;;;;;;;;;20722139;28;20364;-72
2022/03/23 22:24:23;;;;;;;3.97;2.80;;;;;;;;;;20737794;28;20261;-73
2022/03/23 22:34:25;;;;;;;7.43;2.93;;;;;;;;;;20752438;28;20227;-72
2022/03/23 22:44:28;;;;;;;6.00;2.73;;;;;;;;;;20753164;28;20219;-72
2022/03/23 22:54:30;;;;;;;4.67;2.63;;;;;;;;;;20753521;28;20211;-72
2022/03/23 23:04:31;;;;;;;4.67;2.60;;;;;;;;;;20751070;28;20269;-72
2022/03/23 23:14:37;;;;;;;6.17;2.60;;;;;;;;;;20750947;28;20269;-72
2022/03/23 23:24:39;;;;;;;5.27;3.00;;;;;;;;;;20749937;28;20618;-72
2022/03/23 23:34:41;;;;;;;6.27;2.27;;;;;;;;;;20747400;28;20218;-72
2022/03/23 23:44:43;;;;;;;5.73;3.40;;;;;;;;;;20748990;28;20593;-72
2022/03/23 23:54:44;;;;;;;4.60;2.70;;;;;;;;;;20746774;28;20227;-71
